createdAt,value
2022-11-22T00:02:23.008Z,5.31
2022-11-22T00:04:49.547Z,5.50
2022-11-22T00:07:16.072Z,5.33
2022-11-22T00:09:42.582Z,5.17
2022-11-22T00:12:09.096Z,5.57
2022-11-22T00:14:35.695Z,5.59
2022-11-22T00:17:02.185Z,5.53
2022-11-22T00:19:28.862Z,5.51
2022-11-22T00:21:55.526Z,5.50
2022-11-22T00:24:22.141Z,5.31
2022-11-22T00:26:48.642Z,5.42
2022-11-22T00:29:16.080Z,5.18
2022-11-22T00:31:42.585Z,5.39
2022-11-22T00:34:09.103Z,5.35
2022-11-22T00:36:35.688Z,5.32
2022-11-22T00:39:02.196Z,5.34
2022-11-22T00:41:28.756Z,5.35
2022-11-22T00:43:55.314Z,5.35
2022-11-22T00:46:21.815Z,5.20
2022-11-22T00:48:48.352Z,5.31
2022-11-22T00:51:14.857Z,5.34
2022-11-22T00:53:41.754Z,5.31
2022-11-22T00:56:08.390Z,5.33
2022-11-22T00:58:34.940Z,5.31
2022-11-22T01:01:01.639Z,5.33
2022-11-22T01:03:28.288Z,5.33
2022-11-22T01:05:54.832Z,5.35
2022-11-22T01:08:21.349Z,5.32
2022-11-22T01:10:47.865Z,5.29
2022-11-22T01:13:14.440Z,5.16
2022-11-22T01:15:41.026Z,5.32
2022-11-22T01:18:07.563Z,5.12
2022-11-22T01:20:34.203Z,5.16
2022-11-22T01:23:00.704Z,5.35
2022-11-22T01:25:27.246Z,5.34
2022-11-22T01:27:53.756Z,5.08
2022-11-22T01:30:20.461Z,5.15
2022-11-22T01:32:46.957Z,5.12
2022-11-22T01:35:13.788Z,5.29
2022-11-22T01:37:40.339Z,5.29
2022-11-22T01:40:07.796Z,5.16
2022-11-22T01:42:51.954Z,5.23
2022-11-22T01:45:30.580Z,5.06
2022-11-22T01:48:07.747Z,5.22
2022-11-22T01:50:37.557Z,5.19
2022-11-22T01:53:10.885Z,5.24
2022-11-22T01:55:37.498Z,5.20
2022-11-22T01:58:04.645Z,5.20
2022-11-22T02:00:31.140Z,4.97
2022-11-22T02:03:01.746Z,5.19
2022-11-22T02:05:32.678Z,5.22
2022-11-22T02:08:10.504Z,5.13
2022-11-22T02:10:43.498Z,5.09
2022-11-22T02:13:10.966Z,5.18
2022-11-22T02:15:37.613Z,5.18
2022-11-22T02:18:04.247Z,5.18
2022-11-22T02:20:31.458Z,5.19
2022-11-22T02:23:16.773Z,5.23
2022-11-22T02:26:02.883Z,5.13
2022-11-22T02:28:32.222Z,5.27
2022-11-22T02:30:58.808Z,5.26
2022-11-22T02:33:25.379Z,5.10
2022-11-22T02:35:52.104Z,5.24
2022-11-22T02:38:24.896Z,5.27
2022-11-22T02:41:02.113Z,5.20
2022-11-22T02:43:34.937Z,5.16
2022-11-22T02:46:06.659Z,5.18
2022-11-22T02:48:33.217Z,5.18
2022-11-22T02:50:59.914Z,5.18
2022-11-22T02:53:26.464Z,5.16
2022-11-22T02:55:53.037Z,5.20
2022-11-22T02:58:19.541Z,5.24
2022-11-22T03:00:46.214Z,5.11
2022-11-22T03:03:12.814Z,5.24
2022-11-22T03:05:39.350Z,5.25
2022-11-22T03:08:05.890Z,5.15
2022-11-22T03:10:32.446Z,5.43
2022-11-22T03:12:59.668Z,5.50
2022-11-22T03:15:26.494Z,5.44
2022-11-22T03:18:00.934Z,5.38
2022-11-22T03:20:28.099Z,5.56
2022-11-22T03:22:54.730Z,5.63
2022-11-22T03:25:21.297Z,5.73
2022-11-22T03:27:47.896Z,5.72
2022-11-22T03:30:14.947Z,5.61
2022-11-22T03:32:41.603Z,5.88
2022-11-22T03:35:08.644Z,5.81
2022-11-22T03:37:35.170Z,5.91
2022-11-22T03:40:02.011Z,5.96
2022-11-22T03:42:28.536Z,5.83
2022-11-22T03:44:55.072Z,6.11
2022-11-22T03:47:21.599Z,6.12
2022-11-22T03:49:48.168Z,6.21
2022-11-22T03:52:15.014Z,6.23
2022-11-22T03:54:41.634Z,6.26
2022-11-22T03:57:08.160Z,6.25
2022-11-22T03:59:34.769Z,6.20
2022-11-22T04:02:01.390Z,6.23
2022-11-22T04:04:28.168Z,6.18
2022-11-22T04:06:54.654Z,6.29
2022-11-22T04:09:21.375Z,6.25
2022-11-22T04:11:48.032Z,6.22
2022-11-22T04:14:33.347Z,6.23
2022-11-22T04:16:59.898Z,6.24
2022-11-22T04:19:26.485Z,6.26
2022-11-22T04:21:53.041Z,6.30
2022-11-22T04:24:38.199Z,6.32
2022-11-22T04:27:04.799Z,6.16
2022-11-22T04:29:31.621Z,6.33
2022-11-22T04:32:17.018Z,6.29
2022-11-22T04:34:43.607Z,6.28
2022-11-22T04:37:10.150Z,5.94
2022-11-22T04:39:36.847Z,6.28
2022-11-22T04:42:21.950Z,6.33
2022-11-22T04:44:48.582Z,6.37
2022-11-22T04:47:36.865Z,6.41
2022-11-22T04:50:26.034Z,6.46
2022-11-22T04:52:55.162Z,6.48
2022-11-22T04:55:22.418Z,6.50
2022-11-22T04:57:50.427Z,6.48
2022-11-22T05:00:18.811Z,6.51
2022-11-22T05:02:45.477Z,6.28
2022-11-22T05:05:12.141Z,6.26
2022-11-22T05:07:38.793Z,6.47
2022-11-22T05:10:05.572Z,6.48
2022-11-22T05:12:32.230Z,6.48
2022-11-22T05:14:58.764Z,6.47
2022-11-22T05:17:25.296Z,6.39
2022-11-22T05:19:51.944Z,6.43
2022-11-22T05:22:38.412Z,6.45
2022-11-22T05:25:05.499Z,6.50
2022-11-22T05:27:32.052Z,6.51
2022-11-22T05:29:58.696Z,6.15
2022-11-22T05:32:25.225Z,6.54
2022-11-22T05:34:52.029Z,6.30
2022-11-22T05:37:18.598Z,6.51
2022-11-22T05:39:45.092Z,6.49
2022-11-22T05:42:11.677Z,6.51
2022-11-22T05:44:38.295Z,6.50
2022-11-22T05:47:04.900Z,6.50
2022-11-22T05:49:32.144Z,6.52
2022-11-22T05:51:59.134Z,6.43
2022-11-22T05:54:25.746Z,6.41
2022-11-22T05:56:52.282Z,6.29
2022-11-22T05:59:18.847Z,6.16
2022-11-22T06:01:45.385Z,6.08
2022-11-22T06:04:12.202Z,6.09
2022-11-22T06:06:38.721Z,6.04
2022-11-22T06:09:05.318Z,5.85
2022-11-22T06:11:32.024Z,5.96
2022-11-22T06:14:04.868Z,5.93
2022-11-22T06:16:31.491Z,5.90
2022-11-22T06:18:58.032Z,5.88
2022-11-22T06:21:26.333Z,5.88
2022-11-22T06:23:56.405Z,5.87
2022-11-22T06:26:24.175Z,5.86
2022-11-22T06:28:50.872Z,5.64
2022-11-22T06:31:23.227Z,5.81
2022-11-22T06:33:49.825Z,5.83
2022-11-22T06:36:19.043Z,5.65
2022-11-22T06:38:46.245Z,5.78
2022-11-22T06:41:18.186Z,5.77
2022-11-22T06:43:48.998Z,5.77
2022-11-22T06:46:18.331Z,5.76
2022-11-22T06:48:45.347Z,5.59
2022-11-22T06:51:15.028Z,5.80
2022-11-22T06:53:49.785Z,5.76
2022-11-22T06:56:30.792Z,5.72
2022-11-22T06:58:57.834Z,5.67
2022-11-22T07:01:26.888Z,5.51
2022-11-22T07:03:58.441Z,5.50
2022-11-22T07:06:30.994Z,5.63
2022-11-22T07:08:58.694Z,5.57
2022-11-22T07:11:28.081Z,5.59
2022-11-22T07:13:59.036Z,5.60
2022-11-22T07:16:28.536Z,5.61
2022-11-22T07:18:55.110Z,5.42
2022-11-22T07:21:24.307Z,5.60
2022-11-22T07:23:52.923Z,5.64
2022-11-22T07:26:21.283Z,5.62
2022-11-22T07:28:48.465Z,5.70
2022-11-22T07:31:17.222Z,5.70
2022-11-22T07:33:44.248Z,5.73
2022-11-22T07:36:21.875Z,5.63
2022-11-22T07:38:49.187Z,5.70
2022-11-22T07:41:17.163Z,5.47
2022-11-22T07:43:44.357Z,5.70
2022-11-22T07:46:26.386Z,5.56
2022-11-22T07:48:53.178Z,5.75
2022-11-22T07:51:19.757Z,5.76
2022-11-22T07:53:46.438Z,5.86
2022-11-22T07:56:13.124Z,5.90
2022-11-22T07:58:40.175Z,5.94
2022-11-22T08:01:12.399Z,5.96
2022-11-22T08:03:39.821Z,5.96
2022-11-22T08:06:08.468Z,5.98
2022-11-22T08:08:36.296Z,5.99
2022-11-22T08:11:03.877Z,6.01
2022-11-22T08:13:31.414Z,6.08
2022-11-22T08:16:05.602Z,6.09
2022-11-22T08:18:33.193Z,6.19
2022-11-22T08:21:04.608Z,6.27
2022-11-22T08:23:31.215Z,6.29
2022-11-22T08:25:59.094Z,6.35
2022-11-22T08:28:26.107Z,6.36
2022-11-22T08:30:58.461Z,6.21
2022-11-22T08:33:25.025Z,6.44
2022-11-22T08:35:51.692Z,6.47
2022-11-22T08:38:18.300Z,6.44
2022-11-22T08:40:45.060Z,6.40
2022-11-22T08:43:11.683Z,6.49
2022-11-22T08:45:39.140Z,6.57
2022-11-22T08:48:05.858Z,6.63
2022-11-22T08:50:32.455Z,6.69
2022-11-22T08:53:01.432Z,6.69
2022-11-22T08:55:27.965Z,6.78
2022-11-22T08:57:59.078Z,6.79
2022-11-22T09:00:31.704Z,6.80
2022-11-22T09:02:59.799Z,6.62
2022-11-22T09:05:26.612Z,6.87
2022-11-22T09:10:39.949Z,7.01
2022-11-22T09:13:06.500Z,7.05
2022-11-22T09:15:33.309Z,7.08
2022-11-22T09:18:02.077Z,7.07
2022-11-22T09:20:28.784Z,7.13
2022-11-22T09:22:55.381Z,6.97
2022-11-22T09:25:22.394Z,6.98
2022-11-22T09:27:49.045Z,7.13
2022-11-22T09:30:15.900Z,6.96
2022-11-22T09:32:44.641Z,7.12
2022-11-22T09:35:11.249Z,7.12
2022-11-22T09:37:37.836Z,7.15
2022-11-22T09:40:04.808Z,7.16
2022-11-22T09:42:51.664Z,7.25
2022-11-22T09:45:53.753Z,7.25
2022-11-22T09:48:40.070Z,7.14
2022-11-22T09:51:17.304Z,7.16
2022-11-22T09:53:59.792Z,7.22
2022-11-22T09:56:28.387Z,7.16
2022-11-22T09:59:05.993Z,7.30
2022-11-22T10:01:51.170Z,7.42
2022-11-22T10:04:24.219Z,7.35
2022-11-22T10:06:58.790Z,7.27
2022-11-22T10:09:39.413Z,7.13
2022-11-22T10:12:17.528Z,7.18
2022-11-22T10:15:12.385Z,7.18
2022-11-22T10:17:51.871Z,7.25
2022-11-22T10:20:29.806Z,7.21
2022-11-22T10:22:58.641Z,7.21
2022-11-22T10:25:44.647Z,7.14
2022-11-22T10:28:15.124Z,7.37
2022-11-22T10:30:53.788Z,7.44
2022-11-22T10:33:29.648Z,7.38
2022-11-22T10:36:17.117Z,7.31
2022-11-22T10:39:02.164Z,7.28
2022-11-22T10:41:42.964Z,7.35
2022-11-22T10:45:00.930Z,7.34
2022-11-22T10:47:34.515Z,7.39
2022-11-22T10:50:11.433Z,7.49
2022-11-22T10:53:03.431Z,7.67
2022-11-22T10:56:11.134Z,7.68
2022-11-22T10:59:15.372Z,7.67
2022-11-22T11:02:00.236Z,7.75
2022-11-22T11:04:34.547Z,7.66
2022-11-22T11:07:12.069Z,7.87
2022-11-22T11:12:47.438Z,7.89
2022-11-22T11:15:23.407Z,7.88
2022-11-22T11:17:55.923Z,7.81
2022-11-22T11:20:35.420Z,7.95
2022-11-22T11:23:17.178Z,7.66
2022-11-22T11:25:46.146Z,8.24
2022-11-22T11:28:27.271Z,8.24
2022-11-22T11:31:02.475Z,8.14
2022-11-22T11:33:31.675Z,8.26
2022-11-22T11:36:23.613Z,8.21
2022-11-22T11:38:57.704Z,8.28
2022-11-22T11:41:35.314Z,8.33
2022-11-22T11:44:05.863Z,8.35
2022-11-22T11:46:41.515Z,8.34
2022-11-22T11:49:15.345Z,8.19
2022-11-22T11:51:54.170Z,8.19
2022-11-22T11:54:23.929Z,8.17
2022-11-22T11:56:58.939Z,8.26
2022-11-22T11:59:45.644Z,8.15
2022-11-22T12:02:15.287Z,7.89
2022-11-22T12:04:55.222Z,7.95
2022-11-22T12:07:27.558Z,8.16
2022-11-22T12:09:55.931Z,8.28
2022-11-22T12:12:43.966Z,8.40
2022-11-22T12:15:19.694Z,8.35
2022-11-22T12:17:57.706Z,8.44
2022-11-22T12:20:41.900Z,8.43
2022-11-22T12:23:17.376Z,8.50
2022-11-22T12:25:45.536Z,8.50
2022-11-22T12:28:19.293Z,8.48
2022-11-22T12:30:56.834Z,8.51
2022-11-22T12:33:34.213Z,8.61
2022-11-22T12:36:04.204Z,8.64
2022-11-22T12:38:40.321Z,8.54
2022-11-22T12:41:12.388Z,8.62
2022-11-22T12:43:48.679Z,8.58
2022-11-22T12:46:26.467Z,8.61
2022-11-22T12:49:02.789Z,8.60
2022-11-22T12:52:04.550Z,8.60
2022-11-22T12:54:42.666Z,8.65
2022-11-22T12:57:26.248Z,8.62
2022-11-22T13:00:14.538Z,8.73
2022-11-22T13:02:47.094Z,8.73
2022-11-22T13:05:15.160Z,8.74
2022-11-22T13:07:59.779Z,8.81
2022-11-22T13:10:29.272Z,8.85
2022-11-22T13:12:58.955Z,8.78
2022-11-22T13:15:31.715Z,8.79
2022-11-22T13:17:58.683Z,8.78
2022-11-22T13:20:42.949Z,8.84
2022-11-22T13:23:50.054Z,8.87
2022-11-22T13:26:27.649Z,8.95
2022-11-22T13:28:55.679Z,8.85
2022-11-22T13:31:22.281Z,8.84
2022-11-22T13:34:02.295Z,8.69
2022-11-22T13:36:31.794Z,8.63
2022-11-22T13:39:01.120Z,8.56
2022-11-22T13:41:36.683Z,8.54
2022-11-22T13:44:21.762Z,8.56
2022-11-22T13:47:13.199Z,8.66
2022-11-22T13:49:49.404Z,8.59
2022-11-22T13:52:16.054Z,8.63
2022-11-22T13:54:48.375Z,8.78
2022-11-22T13:57:34.782Z,8.77
2022-11-22T14:00:16.688Z,8.74
2022-11-22T14:03:08.602Z,8.67
2022-11-22T14:05:41.669Z,8.65
2022-11-22T14:08:44.051Z,8.49
2022-11-22T14:11:30.215Z,8.58
2022-11-22T14:14:35.505Z,8.59
2022-11-22T14:17:26.384Z,8.47
2022-11-22T14:20:28.611Z,8.57
2022-11-22T14:23:04.346Z,8.57
2022-11-22T14:25:49.109Z,8.58
2022-11-22T14:28:38.773Z,8.59
2022-11-22T14:31:23.237Z,8.52
2022-11-22T14:34:23.706Z,8.55
2022-11-22T14:37:15.440Z,8.58
2022-11-22T14:39:44.683Z,8.60
2022-11-22T14:42:36.654Z,8.64
2022-11-22T14:45:42.448Z,8.60
2022-11-22T14:48:15.518Z,8.63
2022-11-22T14:50:48.322Z,8.70
2022-11-22T14:53:33.220Z,8.64
2022-11-22T14:56:07.999Z,8.52
2022-11-22T14:58:41.025Z,8.51
2022-11-22T15:01:35.755Z,8.44
2022-11-22T15:09:20.357Z,8.40
2022-11-22T15:09:29.397Z,8.39
2022-11-22T15:11:07.983Z,8.32
2022-11-22T15:13:49.452Z,8.21
2022-11-22T15:57:24.381Z,8.00
2022-11-22T15:59:54.337Z,8.00
2022-11-22T16:02:25.956Z,8.02
2022-11-22T16:06:05.372Z,8.05
2022-11-22T16:07:52.575Z,7.98
2022-11-22T16:10:24.190Z,7.99
2022-11-22T16:12:52.536Z,7.97
2022-11-22T16:15:22.597Z,8.01
2022-11-22T16:17:56.429Z,7.97
2022-11-22T16:20:28.968Z,7.99
2022-11-22T16:23:11.835Z,7.98
2022-11-22T16:25:43.942Z,7.94
2022-11-22T16:28:32.104Z,7.94
2022-11-22T16:31:02.115Z,7.91
2022-11-22T16:33:29.348Z,7.88
2022-11-22T16:35:58.504Z,7.88
2022-11-22T16:38:26.164Z,7.86
2022-11-22T16:40:54.665Z,7.89
2022-11-22T16:43:23.340Z,7.97
2022-11-22T16:45:50.787Z,7.99
2022-11-22T16:48:31.764Z,8.04
2022-11-22T16:51:05.043Z,7.98
2022-11-22T16:53:41.475Z,7.99
2022-11-22T16:56:09.342Z,7.98
2022-11-22T16:58:35.903Z,7.92
2022-11-22T17:01:02.703Z,7.96
2022-11-22T17:03:31.841Z,7.89
2022-11-22T17:05:58.495Z,7.94
2022-11-22T17:08:26.019Z,7.91
2022-11-22T17:10:52.992Z,7.91
2022-11-22T17:13:28.044Z,7.95
2022-11-22T17:15:56.067Z,7.84
2022-11-22T17:18:23.087Z,7.93
2022-11-22T17:20:49.930Z,7.94
2022-11-22T17:23:21.089Z,7.86
2022-11-22T17:25:47.712Z,7.92
2022-11-22T17:28:14.488Z,7.93
2022-11-22T17:30:41.071Z,7.79
2022-11-22T17:33:08.614Z,7.84
2022-11-22T17:35:37.234Z,7.88
2022-11-22T17:38:04.891Z,7.91
2022-11-22T17:40:31.728Z,7.89
2022-11-22T17:42:58.764Z,7.77
2022-11-22T17:45:25.269Z,7.69
2022-11-22T17:47:51.995Z,7.73
2022-11-22T17:50:18.689Z,7.70
2022-11-22T17:52:45.311Z,7.81
2022-11-22T17:55:14.353Z,7.76
2022-11-22T17:57:41.265Z,7.77
2022-11-22T18:00:08.449Z,7.75
2022-11-22T18:02:35.279Z,7.71
2022-11-22T18:05:05.746Z,7.86
2022-11-22T18:07:32.457Z,7.84
2022-11-22T18:09:59.074Z,7.78
2022-11-22T18:12:25.700Z,7.79
2022-11-22T18:14:52.322Z,7.82
2022-11-22T18:17:18.900Z,7.81
2022-11-22T18:19:45.418Z,7.79
2022-11-22T18:22:12.007Z,7.82
2022-11-22T18:24:38.692Z,7.80
2022-11-22T18:27:05.240Z,7.85
2022-11-22T18:29:53.517Z,7.84
2022-11-22T18:32:18.474Z,7.72
2022-11-22T18:34:45.206Z,7.72
2022-11-22T18:37:11.845Z,7.73
2022-11-22T18:39:40.002Z,7.71
2022-11-22T18:42:10.443Z,7.75
2022-11-22T18:44:36.917Z,7.72
2022-11-22T18:47:03.818Z,7.72
2022-11-22T18:49:31.174Z,7.68
2022-11-22T18:51:58.070Z,7.77
2022-11-22T18:54:24.730Z,7.74
2022-11-22T18:56:51.811Z,7.73
2022-11-22T18:59:18.805Z,7.71
2022-11-22T19:01:45.644Z,7.70
2022-11-22T19:04:14.987Z,7.75
2022-11-22T19:06:45.602Z,7.73
2022-11-22T19:09:12.491Z,7.60
2022-11-22T19:11:40.248Z,7.70
2022-11-22T19:14:07.693Z,7.70
2022-11-22T19:16:35.559Z,7.62
2022-11-22T19:19:02.240Z,7.75
2022-11-22T19:21:29.961Z,7.72
2022-11-22T19:23:57.020Z,7.54
2022-11-22T19:26:25.708Z,7.66
2022-11-22T19:28:57.730Z,7.75
2022-11-22T19:31:28.050Z,7.74
2022-11-22T19:33:55.453Z,7.71
2022-11-22T19:36:30.498Z,7.73
2022-11-22T19:38:58.750Z,7.71
2022-11-22T19:41:25.485Z,7.56
2022-11-22T19:43:52.572Z,7.66
2022-11-22T19:46:22.308Z,7.60
2022-11-22T19:48:57.417Z,7.58
2022-11-22T19:51:26.425Z,7.58
2022-11-22T19:54:03.742Z,7.59
2022-11-22T19:56:36.300Z,7.56
2022-11-22T19:59:09.293Z,7.54
2022-11-22T20:01:38.534Z,7.46
2022-11-22T20:04:15.322Z,7.37
2022-11-22T20:06:44.854Z,7.27
2022-11-22T20:09:13.839Z,7.26
2022-11-22T20:11:41.426Z,7.19
2022-11-22T20:14:09.453Z,7.13
2022-11-22T20:16:37.292Z,7.05
2022-11-22T20:19:06.941Z,6.96
2022-11-22T20:21:34.992Z,6.95
2022-11-22T20:24:02.546Z,6.97
2022-11-22T20:26:30.602Z,6.94
2022-11-22T20:29:05.840Z,6.91
2022-11-22T20:31:34.497Z,6.91
2022-11-22T20:34:02.003Z,6.90
2022-11-22T20:36:31.695Z,6.91
2022-11-22T20:38:58.845Z,6.95
2022-11-22T20:41:27.897Z,6.96
2022-11-22T20:43:55.915Z,6.97
2022-11-22T20:46:25.482Z,7.00
2022-11-22T20:48:55.530Z,7.00
2022-11-22T20:51:27.829Z,7.04
2022-11-22T20:53:57.435Z,6.89
2022-11-22T20:56:24.527Z,6.99
2022-11-22T20:58:52.365Z,6.96
2022-11-22T21:01:21.553Z,6.94
2022-11-22T21:03:49.042Z,6.96
2022-11-22T21:06:17.182Z,6.94
2022-11-22T21:08:45.787Z,6.95
2022-11-22T21:11:20.863Z,6.92
2022-11-22T21:13:48.136Z,6.94
2022-11-22T21:16:23.738Z,6.88
2022-11-22T21:19:07.004Z,6.86
2022-11-22T21:21:35.782Z,6.85
2022-11-22T21:24:04.465Z,6.82
2022-11-22T21:26:31.710Z,6.84
2022-11-22T21:28:59.658Z,6.87
2022-11-22T21:31:27.354Z,6.92
2022-11-22T21:33:54.339Z,6.91
2022-11-22T21:36:21.334Z,6.92
2022-11-22T21:38:48.356Z,6.87
2022-11-22T21:44:05.890Z,6.90
2022-11-22T21:46:32.459Z,6.90
2022-11-22T21:48:59.064Z,6.90
2022-11-22T21:51:26.462Z,6.80
2022-11-22T21:54:01.318Z,6.69
2022-11-22T21:56:28.306Z,6.78
2022-11-22T21:58:54.947Z,6.61
2022-11-22T22:01:22.238Z,6.71
2022-11-22T22:03:49.093Z,6.72
2022-11-22T22:06:15.676Z,6.73
2022-11-22T22:08:42.259Z,6.75
2022-11-22T22:11:08.843Z,6.79
2022-11-22T22:13:35.493Z,6.83
2022-11-22T22:16:06.579Z,6.90
2022-11-22T22:18:37.571Z,6.91
2022-11-22T22:21:08.618Z,6.86
2022-11-22T22:23:36.927Z,6.97
2022-11-22T22:26:09.865Z,6.95
2022-11-22T22:28:38.008Z,6.98
2022-11-22T22:31:10.297Z,6.87
2022-11-22T22:33:39.198Z,6.86
2022-11-22T22:36:07.128Z,7.02
2022-11-22T22:38:34.519Z,7.05
2022-11-22T22:41:04.031Z,7.00
2022-11-22T22:43:39.124Z,6.88
2022-11-22T22:46:09.845Z,6.95
2022-11-22T22:48:36.381Z,7.04
2022-11-22T22:51:06.644Z,7.00
2022-11-22T22:53:33.298Z,7.09
2022-11-22T22:55:59.893Z,7.11
2022-11-22T22:58:26.788Z,7.10
2022-11-22T23:00:53.353Z,7.16
2022-11-22T23:03:20.088Z,7.15
2022-11-22T23:05:46.718Z,7.19
2022-11-22T23:08:13.310Z,7.30
2022-11-22T23:10:41.133Z,7.33
2022-11-22T23:13:07.636Z,7.37
2022-11-22T23:15:57.023Z,7.36
2022-11-22T23:18:20.774Z,7.38
2022-11-22T23:20:47.340Z,7.42
2022-11-22T23:23:13.865Z,7.30
2022-11-22T23:25:40.394Z,7.48
2022-11-22T23:28:06.989Z,7.46
2022-11-22T23:30:33.514Z,7.46
2022-11-22T23:33:00.136Z,7.36
2022-11-22T23:35:26.714Z,7.37
2022-11-22T23:37:53.230Z,7.39
2022-11-22T23:40:19.779Z,7.39
2022-11-22T23:42:46.371Z,7.40
2022-11-22T23:45:12.987Z,7.43
2022-11-22T23:47:39.563Z,7.43
2022-11-22T23:50:06.604Z,7.42
2022-11-22T23:52:33.151Z,7.43
2022-11-22T23:54:59.701Z,7.45
2022-11-22T23:57:26.195Z,7.46
2022-11-22T23:59:52.731Z,7.43
